リスボン の空港の天気 - METARとTAF

ポルテラ空港 ( LPPT / LIS ) - ポルトガル リスボン
飛行場実況気象(Metar)
観測時間10/18 10:00 WEST (10/18 09:00 UTC)
風向・風速西 2m/s
視程10km以上
天気現象
少しの雲 雲底高度 760m
全天の8割程度の雲 雲底高度 1100m
気温17℃
湿度77%
気圧1020hPa
METARLPPT 180900Z 27003KT 220V310 9999 FEW025 BKN036 17/13 Q1020
過去の天気等 Google飛行場航空写真 Wunderground天気予報

過去48時間のMETAR

飛行場予報(TAF)
発表時間: 10/18 06:10 WEST (10/18 05:10 UTC)
予報対象時間: 18日7時 WEST ~ 19日13時 WEST
風向・風速不定 2m/s
視程10km以上
全天の4割程度の雲 雲底高度 1070m
18日9時 WEST ~ 18日12時 WEST に徐々に
風向・風速西北西 4m/s
18日17時 WEST ~ 18日20時 WEST に徐々に
風向・風速西 4m/s
少しの雲 雲底高度 460m
19日4時 WEST ~ 19日7時 WEST に徐々に
風向・風速南南西 4m/s
全天の4割程度の雲 雲底高度 610m
19日9時 WEST ~ 19日12時 WEST に徐々に
風向・風速南西 8m/s
視程6000m
天気現象弱い雨霧雨
全天の4割程度の雲 雲底高度 180m
全天の8割程度の雲 雲底高度 370m
TAF LPPT 180510Z 1806/1912 VRB03KT 9999 SCT035
BECMG 1808/1811 30008KT
BECMG 1816/1819 26008KT FEW015
BECMG 1903/1906 20008KT SCT020
BECMG 1908/1911 22015KT 6000 -RADZ SCT006 BKN012